createdAt,value
2018-02-13T00:00:10.109Z,77.10
2018-02-13T00:02:37.572Z,76.60
2018-02-13T00:05:05.061Z,76.50
2018-02-13T00:07:32.516Z,76.00
2018-02-13T00:09:59.984Z,75.80
2018-02-13T00:12:27.477Z,76.20
2018-02-13T00:14:55.032Z,76.20
2018-02-13T00:17:23.305Z,76.20
2018-02-13T00:19:51.656Z,76.30
2018-02-13T00:22:19.114Z,76.20
2018-02-13T00:24:46.584Z,77.00
2018-02-13T00:27:14.046Z,76.20
2018-02-13T00:29:41.807Z,76.50
2018-02-13T00:32:09.268Z,76.60
2018-02-13T00:34:37.283Z,77.10
2018-02-13T00:37:04.744Z,77.00
2018-02-13T00:39:32.204Z,76.70
2018-02-13T00:41:59.670Z,76.90
2018-02-13T00:44:27.136Z,76.70
2018-02-13T00:46:54.607Z,77.00
2018-02-13T00:49:22.064Z,77.00
2018-02-13T00:51:49.539Z,77.30
2018-02-13T00:54:17.775Z,77.30
2018-02-13T00:56:45.239Z,77.30
2018-02-13T00:59:12.695Z,77.40
2018-02-13T01:01:40.165Z,77.30
2018-02-13T01:04:07.643Z,77.10
2018-02-13T01:06:35.871Z,77.10
2018-02-13T01:09:03.327Z,77.00
2018-02-13T01:11:30.787Z,77.00
2018-02-13T01:13:58.271Z,76.60
2018-02-13T01:16:25.731Z,76.70
2018-02-13T07:33:03.061Z,80.40
2018-02-13T07:35:30.523Z,78.50
2018-02-13T07:37:58.013Z,77.10
2018-02-13T07:40:26.236Z,74.80
2018-02-13T07:42:53.701Z,74.80
2018-02-13T07:45:21.951Z,72.60
2018-02-13T07:47:49.408Z,72.70
2018-02-13T07:50:16.870Z,72.20
2018-02-13T07:52:44.339Z,71.30
2018-02-13T07:55:11.815Z,70.30
2018-02-13T07:57:39.526Z,69.10
2018-02-13T08:00:07.028Z,68.50
2018-02-13T08:02:34.493Z,68.70
2018-02-13T08:05:01.951Z,67.60
2018-02-13T08:07:29.417Z,66.80
2018-02-13T08:09:56.904Z,66.40
2018-02-13T08:12:24.367Z,65.90
2018-02-13T08:14:51.823Z,65.50
2018-02-13T08:17:19.284Z,64.60
2018-02-13T08:19:46.758Z,64.60
2018-02-13T08:22:14.278Z,63.70
2018-02-13T08:24:41.800Z,62.80
2018-02-13T08:27:09.303Z,62.10
2018-02-13T08:29:37.520Z,60.10
2018-02-13T08:32:05.113Z,60.10
2018-02-13T08:34:32.577Z,59.90
2018-02-13T08:37:00.811Z,58.50
2018-02-13T08:39:28.272Z,58.40
2018-02-13T08:41:55.753Z,57.90
2018-02-13T08:44:23.221Z,57.00
2018-02-13T08:46:51.455Z,57.20
2018-02-13T08:49:18.969Z,57.00
2018-02-13T08:51:47.199Z,57.10
2018-02-13T08:54:14.695Z,56.30
2018-02-13T08:56:42.935Z,57.70
2018-02-13T08:59:10.410Z,57.70
2018-02-13T09:01:37.895Z,56.70
2018-02-13T09:04:05.365Z,57.60
2018-02-13T09:06:32.832Z,57.90
2018-02-13T09:09:01.305Z,57.80
2018-02-13T09:11:28.844Z,56.90
2018-02-13T09:13:56.303Z,56.90
2018-02-13T09:16:23.783Z,57.40
2018-02-13T09:18:51.240Z,57.10
2018-02-13T09:21:18.770Z,56.00
2018-02-13T09:23:46.250Z,56.10
2018-02-13T09:26:13.718Z,56.60
2018-02-13T09:28:41.183Z,56.10
2018-02-13T09:31:08.670Z,55.60
2018-02-13T09:33:36.124Z,55.60
2018-02-13T09:36:03.599Z,54.60
2018-02-13T09:38:31.863Z,53.80
2018-02-13T09:40:59.328Z,53.70
2018-02-13T09:43:27.554Z,53.90
2018-02-13T09:45:55.033Z,53.80
2018-02-13T09:48:22.484Z,54.90
2018-02-13T09:50:50.246Z,54.70
2018-02-13T09:53:17.783Z,55.80
2018-02-13T09:55:45.267Z,54.90
2018-02-13T09:58:12.776Z,55.00
2018-02-13T10:00:40.605Z,54.20
2018-02-13T10:03:10.285Z,51.20
2018-02-13T10:05:37.971Z,51.50
2018-02-13T10:08:05.718Z,51.10
2018-02-13T10:10:33.211Z,50.90
2018-02-13T10:13:01.466Z,50.80
2018-02-13T10:15:28.936Z,50.70
2018-02-13T10:17:57.202Z,47.70
2018-02-13T10:20:24.743Z,47.50
2018-02-13T10:22:52.250Z,46.70
2018-02-13T10:25:19.731Z,46.60
2018-02-13T10:27:47.215Z,46.40
2018-02-13T10:30:14.688Z,46.10
2018-02-13T10:32:42.192Z,45.30
2018-02-13T10:35:09.675Z,44.40
2018-02-13T10:37:37.131Z,44.50
2018-02-13T10:40:04.646Z,42.90
2018-02-13T10:42:32.183Z,42.50
2018-02-13T10:44:59.639Z,43.30
2018-02-13T10:47:27.224Z,44.30
2018-02-13T10:49:55.476Z,42.30
2018-02-13T10:52:23.337Z,42.30
2018-02-13T10:54:50.904Z,42.70
2018-02-13T10:57:19.154Z,42.30
2018-02-13T10:59:46.623Z,42.30
2018-02-13T11:02:19.840Z,42.20
2018-02-13T11:04:48.063Z,40.90
2018-02-13T11:07:15.585Z,40.80
2018-02-13T11:09:43.067Z,40.60
2018-02-13T11:12:10.647Z,41.30
2018-02-13T11:14:38.153Z,39.70
2018-02-13T11:17:05.616Z,39.50
2018-02-13T11:19:33.123Z,40.50
2018-02-13T11:22:00.655Z,40.10
2018-02-13T11:24:28.157Z,39.60
2018-02-13T11:26:55.644Z,37.10
2018-02-13T11:29:23.129Z,38.50
2018-02-13T11:31:50.646Z,38.00
2018-02-13T11:34:18.938Z,38.70
2018-02-13T11:36:46.400Z,38.70
2018-02-13T11:39:13.887Z,37.80
2018-02-13T11:41:41.346Z,38.90
2018-02-13T11:44:08.820Z,37.10
2018-02-13T11:46:36.324Z,37.30
2018-02-13T11:49:03.860Z,36.00
2018-02-13T11:51:32.107Z,35.70
2018-02-13T11:53:59.624Z,35.60
2018-02-13T11:56:27.104Z,36.20
2018-02-13T11:58:54.629Z,36.70
2018-02-13T12:01:22.134Z,36.50
2018-02-13T12:03:50.464Z,37.30
2018-02-13T12:06:17.971Z,37.20
2018-02-13T12:08:45.517Z,35.60
2018-02-13T12:11:12.999Z,35.50
2018-02-13T12:13:40.515Z,36.70
2018-02-13T12:16:08.079Z,39.20
2018-02-13T12:18:35.604Z,39.30
2018-02-13T12:21:03.223Z,37.70
2018-02-13T12:23:31.498Z,38.50
2018-02-13T12:25:59.123Z,38.20
2018-02-13T12:28:26.657Z,36.80
2018-02-13T12:30:54.135Z,38.50
2018-02-13T12:33:21.596Z,40.00
2018-02-13T12:35:49.067Z,41.40
2018-02-13T12:38:16.525Z,41.80
2018-02-13T12:40:44.011Z,40.10
2018-02-13T12:43:11.483Z,38.50
2018-02-13T12:45:39.715Z,36.10
2018-02-13T12:48:07.224Z,36.10
2018-02-13T12:50:34.698Z,36.50
2018-02-13T12:53:02.159Z,37.00
2018-02-13T12:55:29.638Z,37.90
2018-02-13T12:57:57.112Z,36.90
2018-02-13T13:00:24.580Z,38.20
2018-02-13T13:02:52.087Z,36.60
2018-02-13T13:05:19.564Z,36.30
2018-02-13T13:07:47.031Z,37.80
2018-02-13T13:10:14.538Z,38.90
2018-02-13T13:12:42.807Z,41.40
2018-02-13T13:15:10.264Z,41.20
2018-02-13T13:17:40.429Z,41.20
2018-02-13T13:20:07.959Z,41.10
2018-02-13T13:22:35.529Z,37.40
2018-02-13T13:25:03.048Z,35.10
2018-02-13T13:27:31.343Z,34.60
2018-02-13T13:29:58.806Z,34.50
2018-02-13T13:32:26.410Z,33.80
2018-02-13T13:34:53.887Z,33.30
2018-02-13T13:37:21.512Z,34.20
2018-02-13T13:39:49.038Z,36.20
2018-02-13T13:42:16.582Z,34.80
2018-02-13T13:44:44.057Z,35.10
2018-02-13T13:47:11.523Z,34.60
2018-02-13T13:49:38.984Z,34.80
2018-02-13T13:52:06.440Z,35.00
2018-02-13T13:54:33.908Z,37.00
2018-02-13T13:57:02.281Z,37.50
2018-02-13T13:59:29.767Z,39.60
2018-02-13T14:01:57.245Z,35.70
2018-02-13T14:04:24.692Z,34.00
2018-02-13T14:06:52.150Z,35.50
2018-02-13T14:09:19.593Z,33.70
2018-02-13T14:11:47.068Z,31.90
2018-02-13T14:14:14.510Z,30.90
2018-02-13T14:16:41.998Z,34.00
2018-02-13T14:19:10.205Z,35.70
2018-02-13T14:21:37.659Z,35.60
2018-02-13T14:24:05.127Z,36.40
2018-02-13T14:26:32.586Z,33.70
2018-02-13T14:29:00.045Z,31.60
2018-02-13T14:31:28.283Z,33.00
2018-02-13T14:33:55.746Z,32.30
2018-02-13T14:36:23.227Z,31.20
2018-02-13T14:38:50.662Z,30.70
2018-02-13T14:41:18.140Z,31.90
2018-02-13T14:43:45.709Z,32.90
2018-02-13T14:46:13.161Z,34.70
2018-02-13T14:48:40.620Z,37.10
2018-02-13T14:51:08.065Z,38.60
2018-02-13T14:53:35.511Z,40.90
2018-02-13T14:56:03.069Z,42.00
2018-02-13T14:58:30.508Z,41.90
2018-02-13T15:00:57.973Z,41.60
2018-02-13T15:03:25.418Z,41.90
2018-02-13T15:05:52.863Z,41.90
2018-02-13T15:08:21.409Z,42.30
2018-02-13T15:10:48.862Z,42.30
2018-02-13T15:13:16.432Z,42.00
2018-02-13T15:15:45.802Z,42.70
2018-02-13T15:18:13.299Z,42.70
2018-02-13T15:20:40.736Z,42.50
2018-02-13T15:23:09.016Z,42.80
2018-02-13T15:25:36.502Z,43.20
2018-02-13T15:28:04.792Z,43.20
2018-02-13T15:30:32.331Z,43.10
2018-02-13T15:32:59.805Z,43.70
2018-02-13T15:35:27.302Z,42.70
2018-02-13T15:37:54.816Z,43.70
2018-02-13T15:40:22.315Z,44.10
2018-02-13T15:42:49.762Z,43.40
2018-02-13T15:45:17.220Z,43.80
2018-02-13T15:47:44.842Z,44.20
2018-02-13T15:50:12.323Z,43.80
2018-02-13T15:52:39.849Z,44.80
2018-02-13T15:55:07.297Z,44.60
2018-02-13T15:57:35.539Z,44.80
2018-02-13T16:00:03.027Z,44.80
2018-02-13T16:02:30.499Z,45.60
2018-02-13T16:04:57.944Z,46.20
2018-02-13T16:07:26.176Z,47.20
2018-02-13T16:09:53.651Z,46.80
2018-02-13T16:12:21.077Z,47.00
2018-02-13T16:14:48.566Z,47.60
2018-02-13T16:17:16.002Z,47.30
2018-02-13T16:19:43.449Z,47.60
2018-02-13T16:22:10.904Z,47.90
2018-02-13T16:24:38.448Z,47.80
2018-02-13T16:27:05.944Z,47.80
2018-02-13T16:29:33.420Z,47.70
2018-02-13T16:32:00.870Z,47.60
2018-02-13T16:34:28.316Z,48.20
2018-02-13T16:36:55.761Z,48.50
2018-02-13T16:39:23.262Z,48.60
2018-02-13T16:41:51.475Z,49.60
2018-02-13T16:44:19.012Z,49.20
2018-02-13T16:46:46.462Z,49.20
2018-02-13T16:49:14.797Z,49.90
2018-02-13T16:51:42.411Z,49.90
2018-02-13T16:54:09.945Z,49.50
2018-02-13T16:56:38.273Z,49.90
2018-02-13T16:59:05.951Z,49.90
2018-02-13T17:01:33.532Z,50.00
2018-02-13T17:04:01.034Z,50.30
2018-02-13T17:06:28.477Z,50.50
2018-02-13T17:08:55.952Z,50.80
2018-02-13T17:11:23.392Z,51.10
2018-02-13T17:13:50.860Z,51.30
2018-02-13T17:16:18.340Z,51.60
2018-02-13T17:18:45.838Z,52.40
2018-02-13T17:21:14.068Z,52.10
2018-02-13T17:23:41.569Z,52.00
2018-02-13T17:26:09.119Z,52.30
2018-02-13T17:28:36.647Z,52.30
2018-02-13T17:31:04.235Z,52.10
2018-02-13T17:33:32.588Z,52.30
2018-02-13T17:36:00.125Z,52.20
2018-02-13T17:38:27.576Z,52.60
2018-02-13T17:40:55.137Z,52.80
2018-02-13T17:43:22.665Z,53.10
2018-02-13T17:45:50.183Z,53.40
2018-02-13T17:48:17.688Z,53.70
2018-02-13T17:50:45.967Z,53.50
2018-02-13T17:53:13.470Z,53.40
2018-02-13T17:55:40.955Z,53.10
2018-02-13T17:58:08.425Z,53.10
2018-02-13T18:00:37.560Z,52.90
2018-02-13T18:03:05.029Z,52.80
2018-02-13T18:05:32.468Z,53.20
2018-02-13T18:08:00.063Z,53.30
2018-02-13T18:10:27.519Z,53.10
2018-02-13T18:12:54.969Z,53.00
2018-02-13T18:15:22.443Z,53.30
2018-02-13T18:17:49.899Z,53.40
2018-02-13T18:20:17.386Z,53.60
2018-02-13T18:22:45.600Z,53.70
2018-02-13T18:25:13.078Z,53.60
2018-02-13T18:27:40.540Z,54.00
2018-02-13T18:30:08.028Z,54.00
2018-02-13T18:32:35.517Z,53.90
2018-02-13T18:35:02.981Z,54.10
2018-02-13T18:37:30.488Z,54.10
2018-02-13T18:39:58.780Z,54.50
2018-02-13T18:42:27.012Z,54.40
2018-02-13T18:44:54.476Z,54.40
2018-02-13T18:47:21.922Z,54.50
2018-02-13T18:49:49.556Z,54.40
2018-02-13T18:54:46.380Z,54.60
2018-02-13T18:57:17.534Z,54.90
2018-02-13T18:59:45.060Z,54.90
2018-02-13T19:02:12.559Z,54.60
2018-02-13T19:04:40.992Z,54.80
2018-02-13T19:07:09.343Z,55.20
2018-02-13T19:09:36.868Z,55.20
2018-02-13T19:12:04.369Z,55.50
2018-02-13T19:14:31.867Z,55.50
2018-02-13T19:19:26.885Z,55.50
2018-02-13T19:21:54.368Z,55.80
2018-02-13T19:24:22.175Z,55.90
2018-02-13T19:26:49.762Z,55.80
2018-02-13T19:29:18.076Z,55.90
2018-02-13T19:31:45.592Z,55.70
2018-02-13T19:34:13.881Z,56.10
2018-02-13T19:36:41.366Z,56.00
2018-02-13T19:39:08.884Z,56.00
2018-02-13T19:41:37.140Z,56.30
2018-02-13T19:44:04.622Z,56.30
2018-02-13T19:46:32.892Z,56.50
2018-02-13T19:49:01.159Z,56.40
2018-02-13T19:51:29.425Z,57.00
2018-02-13T19:53:58.597Z,56.40
2018-02-13T19:56:26.150Z,56.40
2018-02-13T19:58:53.614Z,56.60
2018-02-13T20:01:21.093Z,56.40
2018-02-13T20:03:48.582Z,56.40
2018-02-13T20:06:19.725Z,56.80
2018-02-13T20:08:47.192Z,57.00
2018-02-13T20:11:14.676Z,57.20
2018-02-13T20:13:42.524Z,57.40
2018-02-13T20:16:09.995Z,57.50
2018-02-13T20:18:39.865Z,57.30
2018-02-13T20:21:07.411Z,57.60
2018-02-13T20:23:35.758Z,57.90
2018-02-13T20:26:03.281Z,57.70
2018-02-13T20:28:30.836Z,58.10
2018-02-13T20:30:58.435Z,58.20
2018-02-13T20:33:27.336Z,58.10
2018-02-13T20:35:55.426Z,58.10
2018-02-13T20:38:23.873Z,58.00
2018-02-13T20:40:51.465Z,57.90
2018-02-13T20:43:19.004Z,58.00
2018-02-13T20:45:46.593Z,58.30
2018-02-13T20:48:14.526Z,58.00
2018-02-13T20:50:46.030Z,58.40
2018-02-13T20:56:07.349Z,58.50
2018-02-13T20:58:36.561Z,58.40
2018-02-13T21:01:05.188Z,58.40
2018-02-13T21:03:32.677Z,58.70
2018-02-13T21:06:00.905Z,58.60
2018-02-13T21:08:28.868Z,58.50
2018-02-13T21:10:56.623Z,58.60
2018-02-13T21:13:24.144Z,58.30
2018-02-13T21:15:51.646Z,58.30
2018-02-13T21:18:19.139Z,58.10
2018-02-13T21:20:46.617Z,58.40
2018-02-13T21:23:14.869Z,58.80
2018-02-13T21:25:42.373Z,58.70
2018-02-13T21:28:09.864Z,58.60
2018-02-13T21:30:37.491Z,58.60
2018-02-13T21:33:05.013Z,58.80
2018-02-13T21:35:32.777Z,58.70
2018-02-13T21:38:00.256Z,58.70
2018-02-13T21:40:28.878Z,58.70
2018-02-13T21:42:56.344Z,58.70
2018-02-13T21:45:23.795Z,58.70
2018-02-13T21:47:51.292Z,58.70
2018-02-13T21:50:18.762Z,58.50
2018-02-13T21:52:47.012Z,58.70
2018-02-13T21:55:14.493Z,58.70
2018-02-13T21:57:42.736Z,58.30
2018-02-13T22:00:10.213Z,58.30
2018-02-13T22:02:37.668Z,58.30
2018-02-13T22:05:05.895Z,58.70
2018-02-13T22:07:33.343Z,58.60
2018-02-13T22:10:00.796Z,58.60
2018-02-13T22:12:28.260Z,58.60
2018-02-13T22:14:55.699Z,58.60
2018-02-13T22:17:23.174Z,58.70
2018-02-13T22:19:50.622Z,58.60
2018-02-13T22:22:18.101Z,58.60
2018-02-13T22:24:45.565Z,58.60
2018-02-13T22:27:13.036Z,58.70
2018-02-13T22:29:40.473Z,58.70
2018-02-13T22:32:07.959Z,58.90
2018-02-13T22:34:36.201Z,59.70
2018-02-13T22:37:03.633Z,59.00
2018-02-13T22:39:31.127Z,59.00
2018-02-13T22:41:58.576Z,59.20
2018-02-13T22:44:26.014Z,59.10
2018-02-13T22:46:53.490Z,59.10
2018-02-13T22:49:20.952Z,59.20
2018-02-13T22:51:48.436Z,59.40
2018-02-13T22:54:16.639Z,59.30
2018-02-13T22:56:44.088Z,59.30
2018-02-13T22:59:11.537Z,59.20
2018-02-13T23:01:39.008Z,59.10
2018-02-13T23:04:06.485Z,59.00
2018-02-13T23:06:33.948Z,58.80
2018-02-13T23:09:01.408Z,59.00
2018-02-13T23:11:28.885Z,59.20
2018-02-13T23:13:56.324Z,59.60
2018-02-13T23:16:23.787Z,59.00
2018-02-13T23:18:51.253Z,59.00
2018-02-13T23:21:18.722Z,59.00
2018-02-13T23:23:46.153Z,59.00
2018-02-13T23:26:13.636Z,59.20
2018-02-13T23:28:41.091Z,59.20
2018-02-13T23:31:08.536Z,59.20
2018-02-13T23:33:36.004Z,59.20
2018-02-13T23:36:03.465Z,59.20
2018-02-13T23:38:30.941Z,59.30
2018-02-13T23:40:59.153Z,59.50
2018-02-13T23:43:26.644Z,59.40
2018-02-13T23:45:54.074Z,59.40
2018-02-13T23:48:21.509Z,59.40
2018-02-13T23:50:48.973Z,59.40
2018-02-13T23:53:16.453Z,59.50
2018-02-13T23:55:43.886Z,59.50
2018-02-13T23:58:11.336Z,59.50
